Time,TemperatureF,DewpointF,PressureIn,WindDirection,WindDirectionDegrees,WindSpeedMPH,WindSpeedGustMPH,Humidity,HourlyPrecipIn,Conditions,Clouds,dailyrainin,SoftwareType,DateUTC
2013-07-19 00:01:00,87.0,44.0,29.88,SSW,202,13.0,17.0,22,0.00,,,0.00,,2013-07-19 07:01:00,
2013-07-19 00:43:00,85.0,43.0,29.88,SW,219,12.0,16.0,23,0.00,,,0.00,,2013-07-19 07:43:00,
2013-07-19 00:53:00,86.0,44.0,29.88,SSW,203,11.0,17.0,23,0.00,,,0.00,,2013-07-19 07:53:00,
2013-07-19 01:01:00,86.0,43.0,29.89,SW,227,7.0,15.0,22,0.00,,,0.00,,2013-07-19 08:01:00,
2013-07-19 01:32:00,85.0,43.0,29.88,South,188,12.0,17.0,23,0.00,,,0.00,,2013-07-19 08:32:00,
2013-07-19 01:43:00,85.0,43.0,29.88,SSW,195,8.0,16.0,23,0.00,,,0.00,,2013-07-19 08:43:00,
2013-07-19 01:52:00,85.0,43.0,29.88,WSW,238,10.0,16.0,23,0.00,,,0.00,,2013-07-19 08:52:00,
2013-07-19 02:02:00,85.0,43.0,29.88,SW,219,11.0,18.0,23,0.00,,,0.00,,2013-07-19 09:02:00,
2013-07-19 02:11:00,85.0,43.0,29.88,SSW,207,10.0,16.0,23,0.00,,,0.00,,2013-07-19 09:11:00,
2013-07-19 02:32:00,85.0,43.0,29.88,SSW,203,13.0,16.0,23,0.00,,,0.00,,2013-07-19 09:32:00,
2013-07-19 02:43:00,84.0,42.0,29.87,SW,219,11.0,16.0,23,0.00,,,0.00,,2013-07-19 09:43:00,
2013-07-19 02:52:00,84.0,43.0,29.87,SW,214,10.0,16.0,24,0.00,,,0.00,,2013-07-19 09:52:00,
2013-07-19 03:01:00,83.0,42.0,29.87,SSW,200,11.0,17.0,24,0.00,,,0.00,,2013-07-19 10:01:00,
2013-07-19 03:11:00,84.0,43.0,29.87,SW,218,9.0,16.0,24,0.00,,,0.00,,2013-07-19 10:11:00,
2013-07-19 03:43:00,84.0,42.0,29.87,SW,232,8.0,12.0,23,0.00,,,0.00,,2013-07-19 10:43:00,
2013-07-19 03:52:00,84.0,42.0,29.87,SSW,211,6.0,12.0,23,0.00,,,0.00,,2013-07-19 10:52:00,
2013-07-19 04:02:00,83.0,41.0,29.87,SSW,196,12.0,17.0,23,0.00,,,0.00,,2013-07-19 11:02:00,
2013-07-19 04:11:00,84.0,42.0,29.86,SSW,205,11.0,15.0,23,0.00,,,0.00,,2013-07-19 11:11:00,
2013-07-19 04:22:00,84.0,42.0,29.87,SSW,200,10.0,17.0,23,0.00,,,0.00,,2013-07-19 11:22:00,
2013-07-19 04:32:00,84.0,42.0,29.87,SW,223,8.0,16.0,23,0.00,,,0.00,,2013-07-19 11:32:00,
2013-07-19 04:42:00,83.0,41.0,29.87,SSW,195,13.0,16.0,23,0.00,,,0.00,,2013-07-19 11:42:00,
2013-07-19 04:52:00,83.0,41.0,29.87,SW,220,8.0,16.0,23,0.00,,,0.00,,2013-07-19 11:52:00,
2013-07-19 05:01:00,83.0,42.0,29.87,SSW,210,9.0,14.0,24,0.00,,,0.00,,2013-07-19 12:01:00,
2013-07-19 05:12:00,82.0,42.0,29.88,SSW,200,2.0,11.0,24,0.00,,,0.00,,2013-07-19 12:12:00,
2013-07-19 05:22:00,81.0,42.0,29.88,SW,229,1.0,3.0,25,0.00,,,0.00,,2013-07-19 12:22:00,
2013-07-19 05:43:00,79.0,41.0,29.88,NNE,18,3.0,6.0,26,0.00,,,0.00,,2013-07-19 12:43:00,
2013-07-19 05:52:00,77.0,40.0,29.89,NE,53,2.0,4.0,27,0.00,,,0.00,,2013-07-19 12:52:00,
2013-07-19 06:11:00,76.0,41.0,29.90,West,261,1.0,2.0,28,0.00,,,0.00,,2013-07-19 13:11:00,
2013-07-19 06:22:00,77.0,42.0,29.90,WSW,258,3.0,5.0,29,0.00,,,0.00,,2013-07-19 13:22:00,
2013-07-19 06:32:00,77.0,42.0,29.90,SW,230,3.0,8.0,29,0.00,,,0.00,,2013-07-19 13:32:00,
2013-07-19 06:53:00,76.0,42.0,29.90,SW,230,0.0,4.0,30,0.00,,,0.00,,2013-07-19 13:53:00,
2013-07-19 07:52:00,85.0,44.0,29.91,SW,215,7.0,12.0,24,0.00,,,0.00,,2013-07-19 14:52:00,
2013-07-19 08:43:00,89.0,44.0,29.92,SW,224,2.0,4.0,21,0.00,,,0.00,,2013-07-19 15:43:00,
2013-07-19 08:52:00,89.0,44.0,29.92,West,261,1.0,5.0,21,0.00,,,0.00,,2013-07-19 15:52:00,
2013-07-19 09:01:00,90.0,43.0,29.92,West,261,0.0,5.0,20,0.00,,,0.00,,2013-07-19 16:01:00,
2013-07-19 09:11:00,91.0,44.0,29.92,West,265,1.0,6.0,20,0.00,,,0.00,,2013-07-19 16:11:00,
2013-07-19 09:21:00,91.0,44.0,29.92,WSW,240,0.0,8.0,20,0.00,,,0.00,,2013-07-19 16:21:00,
2013-07-19 09:32:00,92.0,44.0,29.92,WSW,240,2.0,6.0,19,0.00,,,0.00,,2013-07-19 16:32:00,
2013-07-19 10:32:00,97.0,45.0,29.91,NW,311,4.0,7.0,17,0.00,,,0.00,,2013-07-19 17:32:00,
2013-07-19 11:21:00,99.0,43.0,29.90,NW,321,1.0,4.0,15,0.00,,,0.00,,2013-07-19 18:21:00,
2013-07-19 11:42:00,101.0,43.0,29.90,NNE,14,2.0,5.0,14,0.00,,,0.00,,2013-07-19 18:42:00,
2013-07-19 23:52:00,91.0,42.0,29.82,SSW,197,15.0,21.0,18,0.00,,,0.00,,2013-07-20 06:52:00,